createdAt,value
2022-09-18T00:00:07.366Z,96.66
2022-09-18T00:01:07.316Z,96.66
2022-09-18T00:02:07.343Z,96.55
2022-09-18T00:03:07.363Z,96.55
2022-09-18T00:04:07.307Z,96.66
2022-09-18T00:05:07.277Z,96.75
2022-09-18T00:06:07.268Z,96.86
2022-09-18T00:07:07.236Z,96.96
2022-09-18T00:08:07.230Z,96.75
2022-09-18T00:09:07.255Z,96.55
2022-09-18T00:10:07.321Z,96.66
2022-09-18T00:11:07.186Z,96.34
2022-09-18T00:12:07.181Z,96.25
2022-09-18T00:13:07.163Z,96.34
2022-09-18T00:14:07.158Z,96.55
2022-09-18T00:15:07.148Z,96.25
2022-09-18T00:16:07.194Z,96.14
2022-09-18T00:17:09.237Z,96.30
2022-09-18T00:18:07.120Z,96.51
2022-09-18T00:19:07.088Z,96.66
2022-09-18T00:20:07.148Z,96.55
2022-09-18T00:21:07.076Z,96.55
2022-09-18T00:22:07.091Z,96.66
2022-09-18T00:23:07.067Z,96.86
2022-09-18T00:24:07.040Z,96.45
2022-09-18T00:25:07.028Z,96.55
2022-09-18T00:26:07.019Z,96.45
2022-09-18T00:27:07.011Z,96.45
2022-09-18T00:28:07.021Z,96.25
2022-09-18T00:29:06.980Z,96.34
2022-09-18T00:30:06.978Z,96.45
2022-09-18T00:31:07.031Z,96.55
2022-09-18T00:32:07.033Z,96.45
2022-09-18T00:33:06.970Z,96.45
2022-09-18T00:34:06.928Z,96.34
2022-09-18T00:35:06.933Z,96.25
2022-09-18T00:36:06.913Z,96.34
2022-09-18T00:37:06.889Z,96.55
2022-09-18T00:38:06.891Z,96.55
2022-09-18T00:39:06.890Z,96.45
2022-09-18T00:40:06.922Z,96.55
2022-09-18T00:41:06.881Z,96.66
2022-09-18T00:42:06.837Z,96.66
2022-09-18T00:43:06.842Z,96.75
2022-09-18T00:44:06.814Z,96.75
2022-09-18T00:45:06.822Z,96.86
2022-09-18T00:46:06.817Z,96.75
2022-09-18T00:47:06.772Z,96.86
2022-09-18T00:48:06.763Z,96.96
2022-09-18T00:49:06.742Z,97.11
2022-09-18T00:50:06.733Z,97.11
2022-09-18T00:51:06.777Z,97.06
2022-09-18T00:52:06.723Z,97.21
2022-09-18T00:53:06.704Z,97.11
2022-09-18T00:54:06.693Z,97.00
2022-09-18T00:55:06.683Z,97.00
2022-09-18T00:56:06.733Z,97.00
2022-09-18T00:57:06.664Z,97.11
2022-09-18T00:58:06.639Z,97.21
2022-09-18T00:59:06.636Z,97.21
2022-09-18T01:00:06.628Z,97.21
2022-09-18T01:01:06.647Z,97.11
2022-09-18T01:02:06.686Z,97.21
2022-09-18T01:03:06.591Z,97.00
2022-09-18T01:04:06.576Z,97.00
2022-09-18T01:05:06.574Z,97.11
2022-09-18T01:06:06.553Z,97.11
2022-09-18T01:07:06.548Z,97.21
2022-09-18T01:08:06.553Z,97.21
2022-09-18T01:09:06.526Z,97.21
2022-09-18T01:10:06.639Z,97.31
2022-09-18T01:11:06.495Z,97.41
2022-09-18T01:12:06.485Z,97.62
2022-09-18T01:13:06.507Z,97.77
2022-09-18T01:14:06.505Z,97.97
2022-09-18T01:15:06.448Z,98.07
2022-09-18T01:16:06.470Z,98.18
2022-09-18T01:17:06.416Z,98.18
2022-09-18T01:18:06.409Z,98.18
2022-09-18T01:19:06.435Z,98.07
2022-09-18T01:20:06.394Z,98.18
2022-09-18T01:21:06.377Z,98.18
2022-09-18T01:22:06.369Z,98.28
2022-09-18T01:23:06.357Z,98.07
2022-09-18T01:24:06.347Z,97.82
2022-09-18T01:25:06.357Z,97.82
2022-09-18T01:26:06.341Z,97.82
2022-09-18T01:27:06.308Z,97.52
2022-09-18T01:28:06.298Z,97.31
2022-09-18T01:29:06.290Z,97.21
2022-09-18T01:30:06.271Z,97.21
2022-09-18T01:31:06.333Z,97.31
2022-09-18T01:32:06.238Z,97.31
2022-09-18T01:33:06.330Z,97.11
2022-09-18T01:34:06.232Z,97.00
2022-09-18T01:35:10.163Z,97.00
2022-09-18T01:36:07.243Z,97.00
2022-09-18T01:37:06.191Z,96.91
2022-09-18T01:38:06.171Z,96.80
2022-09-18T01:39:06.180Z,96.80
2022-09-18T01:40:06.213Z,96.80
2022-09-18T01:41:06.143Z,97.00
2022-09-18T01:42:06.160Z,97.00
2022-09-18T01:43:06.119Z,97.00
2022-09-18T01:44:06.101Z,97.00
2022-09-18T01:45:06.109Z,96.80
2022-09-18T01:46:06.109Z,96.80
2022-09-18T01:47:06.083Z,96.59
2022-09-18T01:48:06.129Z,96.70
2022-09-18T01:49:06.050Z,96.80
2022-09-18T01:50:06.031Z,96.91
2022-09-18T01:51:06.030Z,97.00
2022-09-18T01:52:06.016Z,97.00
2022-09-18T01:53:06.002Z,97.00
2022-09-18T01:54:06.087Z,97.21
2022-09-18T01:55:05.999Z,97.41
2022-09-18T01:56:06.065Z,97.41
2022-09-18T01:57:05.952Z,97.31
2022-09-18T01:58:05.942Z,97.41
2022-09-18T01:59:05.934Z,97.41
2022-09-18T02:00:05.955Z,97.31
2022-09-18T02:01:05.912Z,97.41
2022-09-18T02:02:05.978Z,97.31
2022-09-18T02:03:05.884Z,97.27
2022-09-18T02:04:05.878Z,97.37
2022-09-18T02:05:05.933Z,97.16
2022-09-18T02:06:05.873Z,97.06
2022-09-18T02:07:05.856Z,96.96
2022-09-18T02:08:05.826Z,96.86
2022-09-18T02:09:05.814Z,96.96
2022-09-18T02:10:05.815Z,97.16
2022-09-18T02:11:05.818Z,97.16
2022-09-18T02:12:05.797Z,97.06
2022-09-18T02:13:05.774Z,97.16
2022-09-18T02:14:05.766Z,97.27
2022-09-18T02:15:05.840Z,97.16
2022-09-18T02:16:05.818Z,97.16
2022-09-18T02:17:05.924Z,97.37
2022-09-18T02:18:05.717Z,97.47
2022-09-18T02:19:05.849Z,97.67
2022-09-18T02:20:05.696Z,97.57
2022-09-18T02:21:05.675Z,97.57
2022-09-18T02:22:05.666Z,97.67
2022-09-18T02:23:05.671Z,97.47
2022-09-18T02:24:05.662Z,97.37
2022-09-18T02:25:05.627Z,97.27
2022-09-18T02:26:05.700Z,97.27
2022-09-18T02:27:05.617Z,97.27
2022-09-18T02:28:05.676Z,96.96
2022-09-18T02:29:05.619Z,96.75
2022-09-18T02:30:05.598Z,96.86
2022-09-18T02:31:05.640Z,96.96
2022-09-18T02:32:05.549Z,96.86
2022-09-18T02:33:05.545Z,96.96
2022-09-18T02:34:05.518Z,97.06
2022-09-18T02:35:05.546Z,97.06
2022-09-18T02:36:05.497Z,97.37
2022-09-18T02:37:05.632Z,97.57
2022-09-18T02:38:05.469Z,97.47
2022-09-18T02:39:05.483Z,97.37
2022-09-18T02:40:05.510Z,97.37
2022-09-18T02:41:05.481Z,97.47
2022-09-18T02:42:05.492Z,97.37
2022-09-18T02:43:05.418Z,97.37
2022-09-18T02:44:05.399Z,97.47
2022-09-18T02:45:05.400Z,97.67
2022-09-18T02:46:05.411Z,97.67
2022-09-18T02:47:05.400Z,97.47
2022-09-18T02:48:05.361Z,97.16
2022-09-18T02:49:05.413Z,97.06
2022-09-18T02:50:05.336Z,97.06
2022-09-18T02:51:05.329Z,97.16
2022-09-18T02:52:05.391Z,97.27
2022-09-18T02:53:05.302Z,97.37
2022-09-18T02:54:05.290Z,97.37
2022-09-18T02:55:05.284Z,97.16
2022-09-18T02:56:05.262Z,97.16
2022-09-18T02:57:06.930Z,97.06
2022-09-18T02:58:05.291Z,96.96
2022-09-18T02:59:05.270Z,96.86
2022-09-18T03:00:05.231Z,96.86
2022-09-18T03:01:05.205Z,96.75
2022-09-18T03:02:05.266Z,96.55
2022-09-18T03:03:05.190Z,96.66
2022-09-18T03:04:05.195Z,96.55
2022-09-18T03:05:05.154Z,96.66
2022-09-18T03:06:05.157Z,96.75
2022-09-18T03:07:05.133Z,96.66
2022-09-18T03:08:05.133Z,96.66
2022-09-18T03:09:05.203Z,96.75
2022-09-18T03:10:05.117Z,96.86
2022-09-18T03:11:05.175Z,96.96
2022-09-18T03:12:05.081Z,96.96
2022-09-18T03:13:05.073Z,96.96
2022-09-18T03:14:05.064Z,96.86
2022-09-18T03:15:05.083Z,96.75
2022-09-18T03:16:05.098Z,96.66
2022-09-18T03:17:05.042Z,96.75
2022-09-18T03:18:05.016Z,96.96
2022-09-18T03:19:05.005Z,96.96
2022-09-18T03:20:05.155Z,97.06
2022-09-18T03:21:04.976Z,97.16
2022-09-18T03:22:04.970Z,97.16
2022-09-18T03:23:04.948Z,97.37
2022-09-18T03:24:04.945Z,97.78
2022-09-18T03:25:04.950Z,97.98
2022-09-18T03:26:04.946Z,97.88
2022-09-18T03:27:04.908Z,97.78
2022-09-18T03:28:04.895Z,97.67
2022-09-18T03:29:04.891Z,97.57
2022-09-18T03:30:04.877Z,97.78
2022-09-18T03:31:04.903Z,97.88
2022-09-18T03:32:04.876Z,97.92
2022-09-18T03:33:04.844Z,97.92
2022-09-18T03:34:04.828Z,98.03
2022-09-18T03:35:04.810Z,98.13
2022-09-18T03:36:04.819Z,98.44
2022-09-18T03:37:04.792Z,98.54
2022-09-18T03:38:04.808Z,98.65
2022-09-18T03:39:04.768Z,98.74
2022-09-18T03:40:04.806Z,98.95
2022-09-18T03:41:04.798Z,99.15
2022-09-18T03:42:04.773Z,99.26
2022-09-18T03:43:04.731Z,99.26
2022-09-18T03:44:04.737Z,99.26
2022-09-18T03:45:04.715Z,99.26
2022-09-18T03:46:04.704Z,99.36
2022-09-18T03:47:04.701Z,99.26
2022-09-18T03:48:04.660Z,99.36
2022-09-18T03:49:04.650Z,99.36
2022-09-18T03:50:04.693Z,99.15
2022-09-18T03:51:04.621Z,99.05
2022-09-18T03:52:04.671Z,99.15
2022-09-18T03:53:04.601Z,99.15
2022-09-18T03:54:04.590Z,99.15
2022-09-18T03:55:04.583Z,99.26
2022-09-18T03:56:04.592Z,99.36
2022-09-18T03:57:04.561Z,99.56
2022-09-18T03:58:04.542Z,99.56
2022-09-18T03:59:04.530Z,99.36
2022-09-18T04:00:04.522Z,99.36
2022-09-18T04:01:04.513Z,99.36
2022-09-18T04:02:04.623Z,99.46
2022-09-18T04:03:04.596Z,99.66
2022-09-18T04:04:04.483Z,99.87
2022-09-18T04:05:04.483Z,99.98
2022-09-18T04:06:04.460Z,99.99
2022-09-18T04:07:04.461Z,99.99
2022-09-18T04:08:04.423Z,99.99
2022-09-18T04:09:04.424Z,99.99
2022-09-18T04:10:04.402Z,99.99
2022-09-18T04:11:04.396Z,99.99
2022-09-18T04:12:04.373Z,99.98
2022-09-18T04:13:04.413Z,99.87
2022-09-18T04:14:04.367Z,99.87
2022-09-18T04:15:04.344Z,99.87
2022-09-18T04:16:04.365Z,99.87
2022-09-18T04:17:04.315Z,99.98
2022-09-18T04:18:04.322Z,99.87
2022-09-18T04:19:04.318Z,99.87
2022-09-18T04:20:04.287Z,99.98
2022-09-18T04:21:04.305Z,99.99
2022-09-18T04:22:04.265Z,99.93
2022-09-18T04:23:04.256Z,99.82
2022-09-18T04:24:04.370Z,99.72
2022-09-18T04:25:04.231Z,99.62
2022-09-18T04:26:04.223Z,99.72
2022-09-18T04:27:04.205Z,99.52
2022-09-18T04:28:04.217Z,99.21
2022-09-18T04:29:04.175Z,99.01
2022-09-18T04:30:04.222Z,99.01
2022-09-18T04:31:04.236Z,99.01
2022-09-18T04:32:04.147Z,99.11
2022-09-18T04:33:04.197Z,99.01
2022-09-18T04:34:04.117Z,98.90
2022-09-18T04:35:04.108Z,98.80
2022-09-18T04:36:04.117Z,98.70
2022-09-18T04:37:06.882Z,98.70
2022-09-18T04:38:05.067Z,98.39
2022-09-18T04:39:04.136Z,98.49
2022-09-18T04:40:04.081Z,98.70
2022-09-18T04:41:04.066Z,98.80
2022-09-18T04:42:04.020Z,98.70
2022-09-18T04:43:04.007Z,98.80
2022-09-18T04:44:03.997Z,98.90
2022-09-18T04:45:04.037Z,99.01
2022-09-18T04:46:03.976Z,98.90
2022-09-18T04:47:04.037Z,98.39
2022-09-18T04:48:03.961Z,98.19
2022-09-18T04:49:03.938Z,98.04
2022-09-18T04:50:03.929Z,98.19
2022-09-18T04:51:03.930Z,98.35
2022-09-18T04:52:03.911Z,98.39
2022-09-18T04:53:03.918Z,98.39
2022-09-18T04:54:03.960Z,98.49
2022-09-18T04:55:03.870Z,98.49
2022-09-18T04:56:03.872Z,98.19
2022-09-18T04:57:03.849Z,98.19
2022-09-18T04:58:03.839Z,98.29
2022-09-18T04:59:03.932Z,98.29
2022-09-18T05:00:03.834Z,98.19
2022-09-18T05:01:03.950Z,98.19
2022-09-18T05:02:03.912Z,97.88
2022-09-18T05:03:03.791Z,97.63
2022-09-18T05:04:04.342Z,97.74
2022-09-18T05:05:03.783Z,97.63
2022-09-18T05:06:03.763Z,97.53
2022-09-18T05:07:03.771Z,97.63
2022-09-18T05:08:04.751Z,97.53
2022-09-18T05:09:03.823Z,97.63
2022-09-18T05:10:03.733Z,97.83
2022-09-18T05:11:03.709Z,98.04
2022-09-18T05:12:03.699Z,98.04
2022-09-18T05:13:03.724Z,98.14
2022-09-18T05:14:03.737Z,97.88
2022-09-18T05:15:03.688Z,97.53
2022-09-18T05:16:03.876Z,97.12
2022-09-18T05:17:03.643Z,96.71
2022-09-18T05:18:07.712Z,96.71
2022-09-18T05:19:04.615Z,96.81
2022-09-18T05:20:03.748Z,96.92
2022-09-18T05:21:03.615Z,97.12
2022-09-18T05:22:03.586Z,97.02
2022-09-18T05:23:03.555Z,96.92
2022-09-18T05:24:03.673Z,96.92
2022-09-18T05:25:03.551Z,97.02
2022-09-18T05:26:03.594Z,96.81
2022-09-18T05:27:03.519Z,96.71
2022-09-18T05:28:03.495Z,96.61
2022-09-18T05:29:03.497Z,96.81
2022-09-18T05:30:03.485Z,96.61
2022-09-18T05:31:03.490Z,96.71
2022-09-18T05:32:03.484Z,96.81
2022-09-18T05:33:03.439Z,96.92
2022-09-18T05:34:03.517Z,96.92
2022-09-18T05:35:03.515Z,96.61
2022-09-18T05:36:04.516Z,96.61
2022-09-18T05:37:03.461Z,96.71
2022-09-18T05:38:03.386Z,96.61
2022-09-18T05:39:03.430Z,96.51
2022-09-18T05:40:03.452Z,96.20
2022-09-18T05:41:03.361Z,96.20
2022-09-18T05:42:03.379Z,96.41
2022-09-18T05:43:03.358Z,96.51
2022-09-18T05:44:03.330Z,96.61
2022-09-18T05:45:03.303Z,96.10
2022-09-18T05:46:03.380Z,95.95
2022-09-18T05:47:03.429Z,95.95
2022-09-18T05:48:03.311Z,95.64
2022-09-18T05:49:03.287Z,95.54
2022-09-18T05:50:03.278Z,95.64
2022-09-18T05:51:03.236Z,95.75
2022-09-18T05:52:04.053Z,95.75
2022-09-18T05:53:03.230Z,95.64
2022-09-18T05:54:03.320Z,95.54
2022-09-18T05:55:03.227Z,95.44
2022-09-18T05:56:03.168Z,95.44
2022-09-18T05:57:03.183Z,95.34
2022-09-18T05:58:03.450Z,95.13
2022-09-18T05:59:03.213Z,95.03
2022-09-18T06:00:03.323Z,95.23
2022-09-18T06:01:03.121Z,95.03
2022-09-18T06:02:03.153Z,95.13
2022-09-18T06:03:03.849Z,95.23
2022-09-18T06:04:03.100Z,95.54
2022-09-18T06:05:03.091Z,95.44
2022-09-18T06:06:03.099Z,95.54
2022-09-18T06:07:03.041Z,95.23
2022-09-18T06:08:03.042Z,95.03
2022-09-18T06:09:03.221Z,95.23
2022-09-18T06:10:03.023Z,95.34
2022-09-18T06:11:03.076Z,95.23
2022-09-18T06:12:03.009Z,95.23
2022-09-18T06:13:02.983Z,95.19
2022-09-18T06:14:02.971Z,95.29
2022-09-18T06:15:02.942Z,95.19
2022-09-18T06:16:02.974Z,95.19
2022-09-18T06:17:02.967Z,95.29
2022-09-18T06:18:03.013Z,94.58
2022-09-18T06:19:03.535Z,94.17
2022-09-18T06:20:02.958Z,94.17
2022-09-18T06:21:02.947Z,94.17
2022-09-18T06:22:02.873Z,94.48
2022-09-18T06:23:02.889Z,94.48
2022-09-18T06:24:02.990Z,93.76
2022-09-18T06:25:02.843Z,93.76
2022-09-18T06:26:02.843Z,93.96
2022-09-18T06:27:02.824Z,93.66
2022-09-18T06:28:02.855Z,93.45
2022-09-18T06:29:02.868Z,93.55
2022-09-18T06:30:02.997Z,93.55
2022-09-18T06:31:02.860Z,93.25
2022-09-18T06:32:02.804Z,93.51
2022-09-18T06:33:02.825Z,93.41
2022-09-18T06:34:02.765Z,92.69
2022-09-18T06:35:02.715Z,92.80
2022-09-18T06:36:02.720Z,93.00
2022-09-18T06:37:02.691Z,92.80
2022-09-18T06:38:02.676Z,92.49
2022-09-18T06:39:02.815Z,92.69
2022-09-18T06:40:02.715Z,92.90
2022-09-18T06:41:02.676Z,92.69
2022-09-18T06:42:02.732Z,92.19
2022-09-18T06:43:02.632Z,92.35
2022-09-18T06:44:02.615Z,92.35
2022-09-18T06:45:02.616Z,92.14
2022-09-18T06:46:02.617Z,91.98
2022-09-18T06:47:02.624Z,92.14
2022-09-18T06:48:02.587Z,92.24
2022-09-18T06:49:02.548Z,92.24
2022-09-18T06:50:02.543Z,91.94
2022-09-18T06:51:02.558Z,92.14
2022-09-18T06:52:02.560Z,91.94
2022-09-18T06:53:02.564Z,91.78
2022-09-18T06:54:02.559Z,91.98
2022-09-18T06:55:02.549Z,91.98
2022-09-18T06:56:02.478Z,91.78
2022-09-18T06:57:02.488Z,92.24
2022-09-18T06:58:02.451Z,92.24
2022-09-18T06:59:02.430Z,92.04
2022-09-18T07:00:03.240Z,91.83
2022-09-18T07:01:02.523Z,92.14
2022-09-18T07:02:02.467Z,92.04
2022-09-18T07:03:02.426Z,92.45
2022-09-18T07:04:02.471Z,92.55
2022-09-18T07:05:02.384Z,92.86
2022-09-18T07:06:02.402Z,93.16
2022-09-18T07:07:02.358Z,93.16
2022-09-18T07:08:02.346Z,92.86
2022-09-18T07:09:02.422Z,93.06
2022-09-18T07:10:06.952Z,93.57
2022-09-18T07:11:03.300Z,93.88
2022-09-18T07:12:02.292Z,94.29
2022-09-18T07:13:02.313Z,94.02
2022-09-18T07:14:02.322Z,94.43
2022-09-18T07:15:02.334Z,94.33
2022-09-18T07:16:02.346Z,94.94
2022-09-18T07:17:02.239Z,95.15
2022-09-18T07:18:02.242Z,95.45
2022-09-18T07:19:02.213Z,95.76
2022-09-18T07:20:02.224Z,96.06
2022-09-18T07:21:02.192Z,96.42
2022-09-18T07:22:02.173Z,97.08
2022-09-18T07:23:02.173Z,97.49
2022-09-18T07:24:02.194Z,97.70
2022-09-18T07:25:02.156Z,97.80
2022-09-18T07:26:02.183Z,97.33
2022-09-18T07:27:02.137Z,97.64
2022-09-18T07:28:02.105Z,98.00
2022-09-18T07:29:02.084Z,97.85
2022-09-18T07:30:02.072Z,98.05
2022-09-18T07:31:02.130Z,98.46
2022-09-18T07:32:02.094Z,98.46
2022-09-18T07:33:02.055Z,98.05
2022-09-18T07:34:02.030Z,98.05
2022-09-18T07:35:02.031Z,97.95
2022-09-18T07:36:02.012Z,97.24
2022-09-18T07:37:02.331Z,97.64
2022-09-18T07:38:01.996Z,97.80
2022-09-18T07:39:02.093Z,97.80
2022-09-18T07:40:02.055Z,97.60
2022-09-18T07:41:01.945Z,97.19
2022-09-18T07:42:05.616Z,97.08
2022-09-18T07:43:02.956Z,97.08
2022-09-18T07:44:01.914Z,96.37
2022-09-18T07:45:01.905Z,96.58
2022-09-18T07:46:01.886Z,96.68
2022-09-18T07:47:01.949Z,96.17
2022-09-18T07:48:01.867Z,96.27
2022-09-18T07:49:01.886Z,96.37
2022-09-18T07:50:01.839Z,96.42
2022-09-18T07:51:01.838Z,96.01
2022-09-18T07:52:01.829Z,96.21
2022-09-18T07:53:01.810Z,97.13
2022-09-18T07:54:01.865Z,97.80
2022-09-18T07:55:01.800Z,97.95
2022-09-18T07:56:01.778Z,97.85
2022-09-18T07:57:01.759Z,98.15
2022-09-18T07:58:01.807Z,98.05
2022-09-18T07:59:01.728Z,98.25
2022-09-18T08:00:01.767Z,98.36
2022-09-18T08:01:01.723Z,98.25
2022-09-18T08:02:01.861Z,98.25
2022-09-18T08:03:01.785Z,98.15
2022-09-18T08:04:01.729Z,98.05
2022-09-18T08:05:01.661Z,98.05
2022-09-18T08:06:01.682Z,98.25
2022-09-18T08:07:01.670Z,98.25
2022-09-18T08:08:01.650Z,98.46
2022-09-18T08:09:02.612Z,98.46
2022-09-18T08:10:01.668Z,98.66
2022-09-18T08:11:01.652Z,98.66
2022-09-18T08:12:01.591Z,98.93
2022-09-18T08:13:01.580Z,99.23
2022-09-18T08:14:01.572Z,99.27
2022-09-18T08:15:01.551Z,99.18
2022-09-18T08:16:01.637Z,99.18
2022-09-18T08:17:01.561Z,98.77
2022-09-18T08:18:01.522Z,97.64
2022-09-18T08:19:01.501Z,97.44
2022-09-18T08:20:01.510Z,98.05
2022-09-18T08:21:01.483Z,98.46
2022-09-18T08:22:01.524Z,97.89
2022-09-18T08:23:01.453Z,97.89
2022-09-18T08:24:01.464Z,98.15
2022-09-18T08:25:01.432Z,98.46
2022-09-18T08:26:01.428Z,98.56
2022-09-18T08:27:01.412Z,98.36
2022-09-18T08:28:01.465Z,98.15
2022-09-18T08:29:01.385Z,98.15
2022-09-18T08:30:01.383Z,98.15
2022-09-18T08:31:01.423Z,98.15
2022-09-18T08:32:02.748Z,97.74
2022-09-18T08:33:01.345Z,97.85
2022-09-18T08:34:01.357Z,98.05
2022-09-18T08:35:01.346Z,98.36
2022-09-18T08:36:01.305Z,98.46
2022-09-18T08:37:01.296Z,98.66
2022-09-18T08:38:01.300Z,99.07
2022-09-18T08:39:01.341Z,98.86
2022-09-18T08:40:01.358Z,98.97
2022-09-18T08:41:01.244Z,98.66
2022-09-18T08:42:01.243Z,98.56
2022-09-18T08:43:01.230Z,98.41
2022-09-18T08:44:01.224Z,98.31
2022-09-18T08:45:01.226Z,98.31
2022-09-18T08:46:01.205Z,98.52
2022-09-18T08:47:01.256Z,98.41
2022-09-18T08:48:01.169Z,98.52
2022-09-18T08:49:01.156Z,98.11
2022-09-18T08:50:01.151Z,98.11
2022-09-18T08:51:01.167Z,98.31
2022-09-18T08:52:01.156Z,98.52
2022-09-18T08:53:01.107Z,98.31
2022-09-18T08:54:01.171Z,98.31
2022-09-18T08:55:01.097Z,98.41
2022-09-18T08:56:01.085Z,98.68
2022-09-18T08:57:01.099Z,98.61
2022-09-18T08:58:01.233Z,98.93
2022-09-18T08:59:01.098Z,98.93
2022-09-18T09:00:01.816Z,98.98
2022-09-18T09:01:01.111Z,99.08
2022-09-18T09:02:01.131Z,99.59
2022-09-18T09:03:01.103Z,99.39
2022-09-18T09:04:01.027Z,99.29
2022-09-18T09:05:01.007Z,99.18
2022-09-18T09:06:00.992Z,99.39
2022-09-18T09:07:00.980Z,99.29
2022-09-18T09:08:01.032Z,99.29
2022-09-18T09:09:01.021Z,99.39
2022-09-18T09:10:01.019Z,99.59
2022-09-18T09:11:00.960Z,99.49
2022-09-18T09:12:00.931Z,99.18
2022-09-18T09:13:00.957Z,99.02
2022-09-18T09:14:00.943Z,99.08
2022-09-18T09:15:00.864Z,99.49
2022-09-18T09:16:00.920Z,99.75
2022-09-18T09:17:00.853Z,99.99
2022-09-18T09:18:00.864Z,99.14
2022-09-18T09:19:00.891Z,98.83
2022-09-18T09:20:00.842Z,98.22
2022-09-18T09:21:00.802Z,97.91
2022-09-18T09:22:00.877Z,98.18
2022-09-18T09:23:00.883Z,97.97
2022-09-18T09:24:00.987Z,97.87
2022-09-18T09:25:00.776Z,98.11
2022-09-18T09:26:00.772Z,98.02
2022-09-18T09:27:00.798Z,98.02
2022-09-18T09:28:00.706Z,98.11
2022-09-18T09:29:00.733Z,98.43
2022-09-18T09:30:00.751Z,98.83
2022-09-18T09:31:00.751Z,98.83
2022-09-18T09:32:00.782Z,98.93
2022-09-18T09:33:00.715Z,99.24
2022-09-18T09:34:00.673Z,99.44
2022-09-18T09:35:00.645Z,99.24
2022-09-18T09:36:00.663Z,99.24
2022-09-18T09:37:00.928Z,99.09
2022-09-18T09:38:00.640Z,98.89
2022-09-18T09:39:00.723Z,98.18
2022-09-18T09:40:00.735Z,97.97
2022-09-18T09:41:00.585Z,97.92
2022-09-18T09:42:00.580Z,98.23
2022-09-18T09:43:00.565Z,99.10
2022-09-18T09:44:00.555Z,98.79
2022-09-18T09:45:00.506Z,96.66
2022-09-18T09:46:00.547Z,95.64
2022-09-18T09:47:00.627Z,95.94
2022-09-18T09:48:00.490Z,96.25
2022-09-18T09:49:00.726Z,95.74
2022-09-18T09:50:00.458Z,96.15
2022-09-18T09:51:00.483Z,96.04
2022-09-18T09:52:00.437Z,96.00
2022-09-18T09:53:00.455Z,96.41
2022-09-18T09:54:00.504Z,95.43
2022-09-18T09:55:00.752Z,95.33
2022-09-18T09:56:00.525Z,95.33
2022-09-18T09:57:00.446Z,95.29
2022-09-18T09:58:00.402Z,94.68
2022-09-18T09:59:00.352Z,93.70
2022-09-18T10:00:00.357Z,94.27
2022-09-18T10:01:01.348Z,94.27
2022-09-18T10:02:00.397Z,92.68
2022-09-18T10:03:00.311Z,93.15
2022-09-18T10:04:00.291Z,92.84
2022-09-18T10:05:00.282Z,92.94
2022-09-18T10:06:00.295Z,91.58
2022-09-18T10:07:00.269Z,92.19
2022-09-18T10:08:00.290Z,91.43
2022-09-18T10:09:00.322Z,91.13
2022-09-18T10:10:00.273Z,89.50
2022-09-18T10:11:00.200Z,89.36
2022-09-18T10:12:00.273Z,89.36
2022-09-18T10:13:00.190Z,89.22
2022-09-18T10:14:00.180Z,89.11
2022-09-18T10:15:00.160Z,88.60
2022-09-18T10:16:00.286Z,89.31
2022-09-18T10:17:00.222Z,88.81
2022-09-18T10:18:00.288Z,87.73
2022-09-18T10:19:00.174Z,89.76
2022-09-18T10:20:00.195Z,87.98
2022-09-18T10:21:00.144Z,87.87
2022-09-18T10:22:00.142Z,88.63
2022-09-18T10:23:00.165Z,89.14
2022-09-18T10:24:00.128Z,89.95
2022-09-18T10:25:00.126Z,87.65
2022-09-18T10:26:00.203Z,87.75
2022-09-18T10:27:00.076Z,88.16
2022-09-18T10:28:00.064Z,88.73
2022-09-18T10:29:01.314Z,89.54
2022-09-18T10:30:00.069Z,89.03
2022-09-18T10:31:00.028Z,89.24
2022-09-18T10:32:00.065Z,90.25
2022-09-18T10:32:59.992Z,88.77
2022-09-18T10:33:59.966Z,89.28
2022-09-18T10:34:59.990Z,89.59
2022-09-18T10:35:59.966Z,89.89
2022-09-18T10:36:59.904Z,91.01
2022-09-18T10:37:59.893Z,88.98
2022-09-18T10:38:59.979Z,88.26
2022-09-18T10:40:00.039Z,88.46
2022-09-18T10:41:01.116Z,89.18
2022-09-18T10:41:59.867Z,88.26
2022-09-18T10:42:59.910Z,88.57
2022-09-18T10:43:59.869Z,88.87
2022-09-18T10:45:02.126Z,88.93
2022-09-18T10:45:59.848Z,88.02
2022-09-18T10:46:59.858Z,88.02
2022-09-18T10:47:59.821Z,87.92
2022-09-18T10:48:59.791Z,87.92
2022-09-18T10:49:59.778Z,88.32
2022-09-18T10:50:59.785Z,87.71
2022-09-18T10:51:59.795Z,87.61
2022-09-18T10:52:59.787Z,87.51
2022-09-18T10:53:59.760Z,88.12
2022-09-18T10:54:59.725Z,87.20
2022-09-18T10:55:59.742Z,87.41
2022-09-18T10:56:59.705Z,87.57
2022-09-18T10:57:59.692Z,87.57
2022-09-18T10:58:59.718Z,86.82
2022-09-18T10:59:59.692Z,85.60
2022-09-18T11:00:59.745Z,84.78
2022-09-18T11:01:59.654Z,84.38
2022-09-18T11:02:59.631Z,84.95
2022-09-18T11:03:59.715Z,84.74
2022-09-18T11:04:59.592Z,84.23
2022-09-18T11:05:59.648Z,83.89
2022-09-18T11:06:59.590Z,84.30
2022-09-18T11:07:59.568Z,83.79
2022-09-18T11:08:59.690Z,84.13
2022-09-18T11:09:59.541Z,84.30
2022-09-18T11:10:59.522Z,83.12
2022-09-18T11:11:59.574Z,83.53
2022-09-18T11:12:59.505Z,84.09
2022-09-18T11:13:59.493Z,83.59
2022-09-18T11:14:59.542Z,83.38
2022-09-18T11:15:59.548Z,83.08
2022-09-18T11:16:59.468Z,83.59
2022-09-18T11:17:59.433Z,82.71
2022-09-18T11:19:02.027Z,82.85
2022-09-18T11:20:00.471Z,83.56
2022-09-18T11:20:59.452Z,83.93
2022-09-18T11:21:59.464Z,83.93
2022-09-18T11:22:59.402Z,83.73
2022-09-18T11:23:59.397Z,83.36
2022-09-18T11:24:59.376Z,83.87
2022-09-18T11:25:59.344Z,84.17
2022-09-18T11:26:59.407Z,83.67
2022-09-18T11:27:59.344Z,84.17
2022-09-18T11:28:59.305Z,84.38
2022-09-18T11:29:59.298Z,85.39
2022-09-18T11:30:59.316Z,84.99
2022-09-18T11:31:59.335Z,84.92
2022-09-18T11:32:59.377Z,85.39
2022-09-18T11:34:02.913Z,85.60
2022-09-18T11:35:00.235Z,85.49
2022-09-18T11:35:59.297Z,86.41
2022-09-18T11:36:59.249Z,86.31
2022-09-18T11:37:59.245Z,87.43
2022-09-18T11:38:59.187Z,87.77
2022-09-18T11:39:59.239Z,87.87
2022-09-18T11:40:59.189Z,88.42
2022-09-18T11:41:59.169Z,89.95
2022-09-18T11:42:59.160Z,90.20
2022-09-18T11:43:59.222Z,91.52
2022-09-18T11:44:59.208Z,91.52
2022-09-18T11:45:59.129Z,91.11
2022-09-18T11:46:59.175Z,92.13
2022-09-18T11:47:59.109Z,92.84
2022-09-18T11:49:03.770Z,93.35
2022-09-18T11:50:00.279Z,93.15
2022-09-18T11:50:59.155Z,93.55
2022-09-18T11:51:59.056Z,94.37
2022-09-18T11:52:59.043Z,93.35
2022-09-18T11:53:59.050Z,93.55
2022-09-18T11:54:59.020Z,93.90
2022-09-18T11:55:59.043Z,94.72
2022-09-18T11:56:58.991Z,94.62
2022-09-18T11:57:58.984Z,94.21
2022-09-18T11:58:58.962Z,94.31
2022-09-18T11:59:58.964Z,94.11
2022-09-18T12:01:02.994Z,94.35
2022-09-18T12:01:59.991Z,94.82
2022-09-18T12:02:59.060Z,94.46
2022-09-18T12:03:58.930Z,94.66
2022-09-18T12:04:58.990Z,95.23
2022-09-18T12:05:58.922Z,95.43
2022-09-18T12:06:59.041Z,94.72
2022-09-18T12:07:57.538Z,93.80
2022-09-18T12:08:57.579Z,93.60
2022-09-18T12:09:57.466Z,93.50
2022-09-18T12:10:57.484Z,93.54
2022-09-18T12:11:57.463Z,94.05
2022-09-18T12:12:57.486Z,94.46
2022-09-18T12:13:57.423Z,93.85
2022-09-18T12:14:57.433Z,94.35
2022-09-18T12:15:57.440Z,94.05
2022-09-18T12:17:00.784Z,94.26
2022-09-18T12:17:57.369Z,94.05
2022-09-18T12:18:57.523Z,93.95
2022-09-18T12:19:57.371Z,94.15
2022-09-18T12:20:57.337Z,93.13
2022-09-18T12:21:57.367Z,92.72
2022-09-18T12:22:57.327Z,93.44
2022-09-18T12:23:57.315Z,92.72
2022-09-18T12:24:57.335Z,92.72
2022-09-18T12:25:57.307Z,91.50
2022-09-18T12:26:57.292Z,91.91
2022-09-18T12:27:57.263Z,91.40
2022-09-18T12:28:57.243Z,91.20
2022-09-18T12:29:57.340Z,91.05
2022-09-18T12:30:57.381Z,91.26
2022-09-18T12:31:57.322Z,90.34
2022-09-18T12:32:57.205Z,89.83
2022-09-18T12:33:57.199Z,89.83
2022-09-18T12:34:57.180Z,90.24
2022-09-18T12:35:57.209Z,90.24
2022-09-18T12:36:57.180Z,89.99
2022-09-18T12:37:57.164Z,89.32
2022-09-18T12:38:57.793Z,89.18
2022-09-18T12:39:57.858Z,89.79
2022-09-18T12:40:57.774Z,88.67
2022-09-18T12:41:57.803Z,88.87
2022-09-18T12:42:57.766Z,89.07
2022-09-18T12:43:57.723Z,87.65
2022-09-18T12:44:57.704Z,87.81
2022-09-18T12:45:57.755Z,87.51
2022-09-18T12:47:00.335Z,86.49
2022-09-18T12:47:57.686Z,86.29
2022-09-18T12:48:57.851Z,87.41
2022-09-18T12:49:57.672Z,87.57
2022-09-18T12:50:57.651Z,87.26
2022-09-18T12:51:57.630Z,87.87